Time;durP1;ratioP1;P1;durP2;ratioP2;P2;SDS_P1;SDS_P2;PMS_P1;PMS_P2;Temp;Humidity;BMP_temperature;BMP_pressure;BME280_temperature;BME280_humidity;BME280_pressure;Samples;Min_cycle;Max_cycle;Signal;HPM_P1;HPM_P2
2022/06/20 00:00:22;;;;;;;11.10;4.50;;;;;;;23.44;53.72;99686.18;112349;1231;22120;-75
2022/06/20 00:03:02;;;;;;;11.10;4.90;;;;;;;23.41;53.84;99695.27;112922;1230;22974;-75
2022/06/20 00:05:37;;;;;;;17.30;7.00;;;;;;;23.39;54.03;99708.01;112191;1237;22402;-74
2022/06/20 00:08:10;;;;;;;12.60;6.00;;;;;;;23.35;53.75;99701.21;112409;1236;23571;-74
2022/06/20 00:10:43;;;;;;;13.20;5.90;;;;;;;23.29;54.12;99701.10;112078;1236;22841;-74
2022/06/20 00:13:28;;;;;;;11.50;5.40;;;;;;;23.23;54.19;99706.52;111995;1236;22050;-74
2022/06/20 00:16:00;;;;;;;11.90;5.30;;;;;;;23.16;54.56;99699.45;111761;1241;22943;-74
2022/06/20 00:18:29;;;;;;;;;;;;;;;23.12;54.76;99696.05;111952;1240;22972;-74
2022/06/20 00:20:58;;;;;;;12.30;6.10;;;;;;;23.03;55.09;99690.37;111752;1241;22978;-73
2022/06/20 00:23:26;;;;;;;11.20;4.50;;;;;;;23.02;55.20;99680.73;111822;1235;23577;-74
2022/06/20 00:25:55;;;;;;;11.10;5.10;;;;;;;23.04;55.44;99685.16;112406;1234;21971;-74
2022/06/20 00:28:23;;;;;;;11.50;5.40;;;;;;;23.04;55.46;99679.82;112185;1233;22066;-75
2022/06/20 00:30:51;;;;;;;8.30;5.00;;;;;;;23.02;55.54;99674.59;111797;1241;23106;-75
2022/06/20 00:33:19;;;;;;;14.30;4.40;;;;;;;23.00;55.56;99662.20;111388;1242;21984;-75
2022/06/20 00:35:48;;;;;;;14.90;5.60;;;;;;;22.96;55.71;99654.38;111377;1242;21982;-75
2022/06/20 00:38:23;;;;;;;14.80;5.70;;;;;;;22.93;55.83;99660.98;111334;1243;22758;-75
2022/06/20 00:41:20;;;;;;;17.00;5.30;;;;;;;22.88;55.92;99670.38;111346;1241;24279;-75
2022/06/20 00:43:52;;;;;;;13.30;5.10;;;;;;;22.81;56.05;99670.47;111791;1239;22420;-75
2022/06/20 00:46:34;;;;;;;19.40;6.50;;;;;;;22.78;56.37;99668.64;111785;1240;22852;-75
2022/06/20 00:49:45;;;;;;;14.70;5.70;;;;;;;22.78;56.61;99663.83;112217;1234;22254;-75
2022/06/20 00:52:27;;;;;;;14.50;5.90;;;;;;;22.76;56.73;99666.30;112008;1236;21953;-75
2022/06/20 00:55:03;;;;;;;20.80;11.30;;;;;;;22.73;56.94;99666.40;112149;1236;23645;-74
2022/06/20 00:57:38;;;;;;;10.70;5.60;;;;;;;22.72;57.03;99675.88;111681;1241;21980;-75
2022/06/20 01:00:17;;;;;;;16.00;5.50;;;;;;;22.68;56.97;99672.75;111791;1241;21950;-75
2022/06/20 01:02:55;;;;;;;20.40;6.80;;;;;;;22.64;57.10;99685.88;111715;1242;21976;-75
2022/06/20 01:05:35;;;;;;;10.20;5.60;;;;;;;22.60;57.25;99693.98;111730;1242;21960;-74
2022/06/20 01:08:17;;;;;;;13.70;5.80;;;;;;;22.59;57.57;99704.59;111698;1241;23646;-75
2022/06/20 01:11:02;;;;;;;13.10;5.40;;;;;;;22.58;57.50;99711.69;111906;1237;22017;-75
2022/06/20 01:13:31;;;;;;;12.30;5.30;;;;;;;22.52;57.63;99710.05;112144;1236;22983;-75
2022/06/20 01:16:20;;;;;;;14.20;5.90;;;;;;;22.51;58.01;99708.20;112486;1230;23104;-75
2022/06/20 01:18:49;;;;;;;14.70;5.10;;;;;;;22.47;58.15;99709.48;113017;1231;21945;-75
2022/06/20 01:21:30;;;;;;;11.80;6.30;;;;;;;22.45;58.21;99712.11;113066;1231;21963;-74
2022/06/20 01:24:31;;;;;;;14.10;6.20;;;;;;;22.39;58.26;99715.63;112613;1235;21947;-75
2022/06/20 01:27:27;;;;;;;12.70;5.90;;;;;;;22.31;58.33;99716.66;111077;1247;21974;-75
2022/06/20 01:29:55;;;;;;;14.30;6.70;;;;;;;22.25;58.59;99721.31;111095;1248;21990;-75
2022/06/20 01:32:24;;;;;;;12.50;5.90;;;;;;;22.23;59.07;99733.98;111071;1248;21980;-75
2022/06/20 01:34:59;;;;;;;15.50;6.30;;;;;;;22.21;59.16;99741.66;110467;1254;22126;-75
2022/06/20 01:37:32;;;;;;;12.00;5.30;;;;;;;22.16;59.48;99741.63;110530;1254;23583;-75
2022/06/20 01:40:07;;;;;;;10.80;5.90;;;;;;;22.13;60.02;99746.76;110565;1251;23002;-76
2022/06/20 01:42:38;;;;;;;16.10;7.30;;;;;;;22.10;60.28;99747.33;110597;1254;23069;-75
2022/06/20 01:48:08;;;;;;;14.10;7.80;;;;;;;21.99;61.09;99759.61;111220;1242;23583;-76
2022/06/20 01:50:37;;;;;;;14.70;6.70;;;;;;;21.96;61.67;99763.30;111553;1242;21972;-75
2022/06/20 01:53:08;;;;;;;13.70;7.00;;;;;;;21.97;62.14;99763.69;111319;1243;22006;-75
2022/06/20 01:55:37;;;;;;;14.10;6.80;;;;;;;21.96;62.34;99765.67;111449;1242;21957;-74
2022/06/20 01:58:14;;;;;;;13.50;6.10;;;;;;;21.92;62.48;99764.95;111362;1242;23800;-75
2022/06/20 02:00:42;;;;;;;17.70;7.50;;;;;;;21.85;62.97;99762.25;111605;1236;22447;-75
2022/06/20 02:03:17;;;;;;;12.40;7.50;;;;;;;21.82;63.43;99766.47;112124;1237;21960;-75
2022/06/20 02:05:54;;;;;;;20.90;7.30;;;;;;;21.79;64.00;99772.73;112931;1231;21952;-75
2022/06/20 02:08:24;;;;;;;15.80;7.30;;;;;;;21.76;64.35;99781.42;112975;1231;23119;-74
2022/06/20 02:11:17;;;;;;;15.60;8.10;;;;;;;21.74;64.41;99788.94;112832;1231;21953;-73
2022/06/20 02:13:50;;;;;;;18.60;6.80;;;;;;;21.73;64.85;99790.04;113008;1231;23456;-75
2022/06/20 02:16:25;;;;;;;11.00;7.00;;;;;;;21.75;65.12;99789.36;112414;1234;21985;-75
2022/06/20 02:18:59;;;;;;;12.40;7.10;;;;;;;21.75;65.17;99791.58;112377;1236;21953;-74
2022/06/20 02:21:33;;;;;;;14.10;7.60;;;;;;;21.75;65.30;99790.55;112111;1237;21971;-74
2022/06/20 02:24:11;;;;;;;16.60;8.10;;;;;;;21.74;65.43;99791.30;111003;1246;21988;-74
2022/06/20 02:26:43;;;;;;;11.70;7.80;;;;;;;21.75;65.66;99795.91;111187;1245;24001;-74
2022/06/20 02:29:25;;;;;;;10.50;7.20;;;;;;;21.77;65.76;99791.64;111107;1245;22011;-74
2022/06/20 02:32:09;;;;;;;15.50;7.60;;;;;;;21.78;65.92;99793.05;111103;1245;21976;-74
2022/06/20 02:34:38;;;;;;;14.20;8.10;;;;;;;21.78;65.96;99797.89;111354;1242;21965;-74
2022/06/20 02:37:19;;;;;;;12.90;8.10;;;;;;;21.76;65.96;99805.83;111679;1241;21961;-75
2022/06/20 02:39:57;;;;;;;16.30;8.80;;;;;;;21.74;66.17;99817.64;111624;1237;23078;-75
2022/06/20 02:42:51;;;;;;;15.50;8.90;;;;;;;21.74;66.44;99823.34;112074;1235;22012;-74
2022/06/20 02:45:21;;;;;;;13.00;8.50;;;;;;;21.74;66.49;99825.38;111541;1238;21969;-75
2022/06/20 02:47:56;;;;;;;13.60;8.90;;;;;;;21.74;66.49;99828.40;111464;1242;22733;-76
2022/06/20 02:50:50;;;;;;;13.00;9.20;;;;;;;21.75;66.59;99833.19;111098;1242;21981;-76
2022/06/20 02:53:41;;;;;;;14.50;8.80;;;;;;;21.73;66.50;99846.60;110877;1251;21964;-75
2022/06/20 02:56:15;;;;;;;18.40;10.00;;;;;;;21.71;66.43;99855.24;110926;1248;21972;-74
2022/06/20 02:58:53;;;;;;;15.40;9.30;;;;;;;21.66;66.35;99853.09;110383;1254;23608;-75
2022/06/20 03:02:02;;;;;;;15.70;9.40;;;;;;;21.64;66.41;99846.79;110558;1251;23130;-75
2022/06/20 03:04:35;;;;;;;13.30;9.70;;;;;;;21.60;66.21;99879.42;111077;1247;21976;-75
2022/06/20 03:07:11;;;;;;;16.70;9.90;;;;;;;21.54;66.29;99887.16;111350;1241;22470;-74
2022/06/20 03:09:42;;;;;;;20.50;9.50;;;;;;;21.49;66.11;99888.02;111479;1242;23573;-75
2022/06/20 03:12:14;;;;;;;20.70;9.60;;;;;;;21.45;66.05;99888.30;111368;1242;23295;-75
2022/06/20 03:14:52;;;;;;;15.00;8.30;;;;;;;21.41;66.15;99895.71;110970;1248;22003;-75
2022/06/20 03:17:23;;;;;;;12.30;8.20;;;;;;;21.34;65.52;99900.77;111247;1242;22848;-75
2022/06/20 03:19:57;;;;;;;16.00;9.70;;;;;;;21.26;65.40;99888.45;111616;1242;23725;-75
2022/06/20 03:22:35;;;;;;;13.90;9.00;;;;;;;21.23;65.48;99893.84;111459;1242;22976;-75
2022/06/20 03:25:07;;;;;;;13.80;9.00;;;;;;;21.16;65.12;99892.30;111420;1242;21969;-75
2022/06/20 03:27:40;;;;;;;14.60;10.00;;;;;;;21.05;64.99;99879.31;111441;1242;24884;-74
2022/06/20 03:30:37;;;;;;;20.00;10.90;;;;;;;20.99;65.20;99877.58;111265;1241;23685;-75
2022/06/20 03:33:11;;;;;;;20.00;11.80;;;;;;;20.94;65.32;99878.80;110889;1247;23160;-75
2022/06/20 03:35:42;;;;;;;19.50;12.70;;;;;;;20.87;65.22;99872.19;110748;1253;21989;-75
2022/06/20 03:38:14;;;;;;;25.20;12.70;;;;;;;20.81;65.59;99867.60;110566;1254;21979;-75
2022/06/20 03:40:43;;;;;;;20.20;10.60;;;;;;;20.78;65.73;99868.57;111099;1247;23037;-74
2022/06/20 03:43:22;;;;;;;18.40;11.80;;;;;;;20.70;65.58;99874.09;110432;1254;21977;-75
2022/06/20 03:46:18;;;;;;;16.20;11.00;;;;;;;20.59;65.73;99875.53;109986;1259;23153;-75
2022/06/20 03:49:00;;;;;;;17.90;9.80;;;;;;;20.46;66.23;99871.13;109770;1257;21979;-75
2022/06/20 03:51:45;;;;;;;17.20;11.40;;;;;;;20.38;66.83;99868.41;109902;1259;22080;-75
2022/06/20 03:54:49;;;;;;;20.20;14.10;;;;;;;20.31;66.86;99860.27;110022;1254;21997;-74
2022/06/20 03:57:56;;;;;;;23.50;15.30;;;;;;;20.17;67.02;99838.20;110385;1256;22099;-75
2022/06/20 04:01:11;;;;;;;31.20;16.90;;;;;;;20.09;67.46;99830.56;110506;1255;22198;-76
2022/06/20 04:04:10;;;;;;;26.50;18.90;;;;;;;19.97;67.63;99826.46;110630;1251;22188;-74
2022/06/20 04:06:57;;;;;;;29.20;18.60;;;;;;;19.83;68.05;99817.35;110448;1254;22433;-75
2022/06/20 04:13:07;;;;;;;30.70;19.00;;;;;;;19.78;68.96;99803.98;111701;1239;22213;-74
2022/06/20 04:15:50;;;;;;;32.10;20.10;;;;;;;19.73;69.19;99811.23;111927;1235;22066;-74
2022/06/20 04:18:43;;;;;;;26.30;19.00;;;;;;;19.74;69.63;99816.66;111449;1242;22639;-74
2022/06/20 04:21:58;;;;;;;32.30;21.50;;;;;;;19.77;69.88;99810.88;111706;1241;23662;-75
2022/06/20 04:25:25;;;;;;;36.10;22.20;;;;;;;19.74;69.78;99823.15;111366;1242;23697;-75
2022/06/20 04:28:25;;;;;;;36.90;20.60;;;;;;;19.72;70.19;99820.45;111559;1241;21962;-75
2022/06/20 04:34:36;;;;;;;35.60;23.10;;;;;;;19.76;70.32;99788.35;111200;1245;23047;-74
2022/06/20 04:37:59;;;;;;;40.30;24.50;;;;;;;19.72;70.42;99803.65;111620;1240;23779;-74
2022/06/20 04:40:39;;;;;;;35.20;22.30;;;;;;;19.69;70.68;99810.52;111531;1241;22009;-74
2022/06/20 04:43:30;;;;;;;33.90;20.60;;;;;;;19.73;70.97;99803.40;111647;1241;21957;-74
2022/06/20 04:46:26;;;;;;;35.10;21.90;;;;;;;19.78;71.16;99797.28;111180;1244;21955;-74
2022/06/20 04:48:59;;;;;;;37.70;22.20;;;;;;;19.82;71.31;99793.29;111081;1245;22002;-73
2022/06/20 04:51:38;;;;;;;29.10;19.80;;;;;;;19.91;71.48;99792.78;110585;1251;22004;-74
2022/06/20 04:54:12;;;;;;;33.10;19.70;;;;;;;19.92;70.84;99781.06;111167;1247;21965;-75
2022/06/20 04:56:43;;;;;;;31.40;17.70;;;;;;;19.85;70.37;99770.01;110859;1245;444038;-75
2022/06/20 04:59:26;;;;;;;32.60;16.20;;;;;;;19.76;70.53;99759.77;111215;1241;21970;-75
2022/06/20 05:02:04;;;;;;;27.10;16.10;;;;;;;19.73;70.61;99747.89;111651;1241;23074;-74
2022/06/20 05:04:41;;;;;;;36.10;16.70;;;;;;;19.69;70.65;99739.77;111318;1241;21970;-73
2022/06/20 05:07:26;;;;;;;25.60;15.50;;;;;;;19.67;70.68;99760.88;111415;1241;23379;-74
2022/06/20 05:10:31;;;;;;;28.20;15.20;;;;;;;19.68;70.88;99805.63;112199;1234;22819;-74
2022/06/20 05:13:49;;;;;;;30.10;16.60;;;;;;;19.73;71.14;99835.95;112402;1235;22023;-74
2022/06/20 05:16:34;;;;;;;33.60;16.90;;;;;;;19.76;70.90;99858.30;112684;1234;22715;-73
2022/06/20 05:19:15;;;;;;;36.10;17.40;;;;;;;19.80;70.74;99878.27;112758;1234;21956;-74
2022/06/20 05:21:53;;;;;;;33.90;17.70;;;;;;;19.87;70.89;99875.80;111714;1235;23628;-74
2022/06/20 05:24:34;;;;;;;30.10;18.80;;;;;;;19.92;70.78;99879.55;112225;1234;23549;-75
2022/06/20 05:27:49;;;;;;;34.30;20.60;;;;;;;19.97;70.67;99883.19;112056;1235;22716;-75
2022/06/20 05:30:40;;;;;;;37.70;22.80;;;;;;;20.02;70.70;99896.89;111651;1241;23084;-75
2022/06/20 05:33:36;;;;;;;49.90;28.40;;;;;;;20.06;70.52;99908.42;111506;1242;23020;-75
2022/06/20 05:36:21;;;;;;;43.50;30.90;;;;;;;20.07;70.36;99904.38;111712;1242;24372;-75
2022/06/20 05:39:15;;;;;;;44.50;29.60;;;;;;;20.07;70.14;99895.64;111435;1243;23605;-74
2022/06/20 05:41:49;;;;;;;35.50;26.60;;;;;;;20.04;70.03;99914.98;112001;1237;21991;-74
2022/06/20 05:44:20;;;;;;;33.40;23.10;;;;;;;20.02;70.04;99906.44;112381;1235;21953;-74
2022/06/20 05:47:08;;;;;;;31.40;22.20;;;;;;;20.03;70.01;99893.63;112175;1236;23565;-74
2022/06/20 05:50:14;;;;;;;32.40;25.30;;;;;;;20.01;69.70;99891.98;112023;1237;22880;-74
2022/06/20 05:52:47;;;;;;;26.80;21.30;;;;;;;19.98;69.66;99889.73;111602;1242;21964;-75
2022/06/20 05:55:41;;;;;;;28.30;19.60;;;;;;;19.93;69.49;99888.32;111441;1243;22022;-75
2022/06/20 05:58:39;;;;;;;;;;;;;;;;;;;;;
2022/06/20 06:01:30;;;;;;;18.40;16.60;;;;;;;19.81;68.70;99844.34;111407;1243;22747;-75
2022/06/20 06:04:45;;;;;;;21.90;18.50;;;;;;;19.66;68.39;99829.75;111412;1242;22313;-75
2022/06/20 06:07:58;;;;;;;19.70;17.70;;;;;;;19.44;68.60;99827.28;111192;1244;21965;-74
2022/06/20 06:11:23;;;;;;;20.30;18.30;;;;;;;19.25;69.32;99799.17;110773;1247;23042;-74
2022/06/20 06:14:16;;;;;;;18.50;16.70;;;;;;;19.08;69.99;99798.56;110222;1257;23794;-73
2022/06/20 06:16:52;;;;;;;19.70;17.90;;;;;;;19.01;70.64;99814.91;110080;1257;21972;-74
2022/06/20 06:19:58;;;;;;;18.50;16.60;;;;;;;19.02;71.42;99813.13;110073;1257;22665;-74
2022/06/20 06:22:55;;;;;;;16.70;15.10;;;;;;;19.03;71.95;99801.20;110272;1259;23699;-77
2022/06/20 06:25:34;;;;;;;16.70;15.00;;;;;;;19.13;73.06;99786.52;110047;1260;23480;-75
2022/06/20 06:28:21;;;;;;;23.00;20.80;;;;;;;19.29;73.46;99782.85;110389;1254;21969;-74
2022/06/20 06:31:03;;;;;;;22.50;20.40;;;;;;;19.38;73.11;99774.16;110767;1251;21971;-74
2022/06/20 06:33:50;;;;;;;17.60;16.00;;;;;;;19.47;73.25;99765.84;111124;1245;23751;-75
2022/06/20 06:36:48;;;;;;;17.40;15.70;;;;;;;19.54;72.71;99763.17;111144;1247;23691;-76
2022/06/20 06:39:29;;;;;;;17.00;15.40;;;;;;;19.61;72.24;99758.30;111831;1238;21956;-75
2022/06/20 06:42:12;;;;;;;;;;;;;;;19.62;71.55;99753.02;111227;1244;23029;-74
2022/06/20 06:45:06;;;;;;;14.20;12.90;;;;;;;19.55;71.41;99742.34;111465;1244;22345;-76
2022/06/20 06:47:51;;;;;;;11.90;10.60;;;;;;;19.55;71.23;99737.89;111086;1239;23201;-76
2022/06/20 06:50:45;;;;;;;12.50;11.40;;;;;;;19.63;71.43;99734.48;111893;1238;21941;-75
2022/06/20 06:53:34;;;;;;;10.70;9.70;;;;;;;19.75;71.55;99718.66;111946;1238;22518;-75
2022/06/20 06:56:49;;;;;;;12.70;11.60;;;;;;;19.80;70.55;99696.05;111424;1244;22003;-75
2022/06/20 06:59:33;;;;;;;21.50;19.60;;;;;;;19.78;70.24;99692.39;111091;1248;21970;-74
2022/06/20 07:02:11;;;;;;;19.00;17.40;;;;;;;19.82;70.38;99694.80;110602;1251;23100;-75
2022/06/20 07:05:04;;;;;;;18.20;16.80;;;;;;;19.84;69.97;99685.83;110639;1250;21995;-75
2022/06/20 07:08:00;;;;;;;20.00;18.20;;;;;;;19.82;69.74;99672.55;110715;1251;22113;-74
2022/06/20 07:10:57;;;;;;;23.70;21.30;;;;;;;19.86;70.14;99662.44;110809;1251;22354;-75
2022/06/20 07:13:49;;;;;;;23.50;21.50;;;;;;;20.02;70.83;99666.05;110435;1251;23564;-75
2022/06/20 07:16:41;;;;;;;25.30;23.10;;;;;;;20.30;71.11;99668.35;110845;1251;23494;-74
2022/06/20 07:19:15;;;;;;;26.90;24.40;;;;;;;20.53;70.09;99664.11;111183;1242;22111;-75
2022/06/20 07:21:48;;;;;;;26.20;23.60;;;;;;;20.73;69.79;99656.98;111672;1240;21965;-74
2022/06/20 07:24:31;;;;;;;26.20;23.70;;;;;;;21.02;69.84;99652.20;111513;1239;23569;-75
2022/06/20 07:27:48;;;;;;;24.40;22.00;;;;;;;21.38;68.89;99656.98;111191;1245;23025;-75
2022/06/20 07:30:26;;;;;;;24.60;22.10;;;;;;;21.82;68.12;99661.29;111465;1244;21964;-75
2022/06/20 07:33:17;;;;;;;26.00;23.50;;;;;;;22.12;66.83;99653.47;112133;1235;22833;-76
2022/06/20 07:35:55;;;;;;;25.80;22.30;;;;;;;22.50;66.45;99648.34;112034;1236;21959;-75
2022/06/20 07:39:54;;;;;;;24.50;21.90;;;;;;;22.96;65.25;99651.06;111719;1241;24324;-75
2022/06/20 07:43:10;;;;;;;24.00;21.40;;;;;;;23.62;64.30;99653.13;110860;1251;21973;-75
2022/06/20 07:45:59;;;;;;;23.50;21.00;;;;;;;24.19;62.24;99647.59;110694;1251;23676;-76
2022/06/20 07:48:51;;;;;;;24.20;19.40;;;;;;;24.60;60.67;99641.63;110564;1254;22886;-75
2022/06/20 07:51:53;;;;;;;25.90;21.10;;;;;;;24.98;59.20;99640.33;110629;1251;23036;-75
2022/06/20 07:54:40;;;;;;;22.80;20.10;;;;;;;25.19;57.61;99641.08;110861;1251;21979;-76
2022/06/20 07:57:37;;;;;;;19.40;17.10;;;;;;;25.59;58.18;99638.86;110806;1251;22774;-74
2022/06/20 08:00:21;;;;;;;21.40;18.20;;;;;;;26.09;56.60;99642.22;110629;1251;22080;-75
2022/06/20 08:03:35;;;;;;;19.90;17.80;;;;;;;26.38;54.53;99636.31;109781;1259;21997;-76
2022/06/20 08:06:36;;;;;;;19.70;17.60;;;;;;;26.72;54.32;99630.35;109370;1264;22098;-74
2022/06/20 08:09:28;;;;;;;19.30;17.30;;;;;;;27.16;53.33;99629.70;109237;1265;21990;-75
2022/06/20 08:12:24;;;;;;;23.60;18.30;;;;;;;27.43;51.64;99630.66;109268;1263;22008;-75
2022/06/20 08:15:23;;;;;;;19.20;17.10;;;;;;;27.52;51.05;99623.41;109505;1262;22088;-74
2022/06/20 08:17:59;;;;;;;18.40;16.50;;;;;;;27.74;50.62;99622.84;110250;1256;21977;-75
2022/06/20 08:20:33;;;;;;;21.10;17.00;;;;;;;27.79;49.72;99626.02;110560;1248;23399;-76
2022/06/20 08:23:29;;;;;;;19.70;16.80;;;;;;;27.90;50.41;99628.56;111294;1239;24343;-75
2022/06/20 08:26:12;;;;;;;19.40;15.60;;;;;;;28.23;51.10;99617.77;111777;1239;21960;-78
2022/06/20 08:28:58;;;;;;;17.00;14.90;;;;;;;28.67;49.29;99617.41;111743;1239;22047;-75
2022/06/20 08:31:41;;;;;;;15.70;13.30;;;;;;;29.02;49.02;99618.23;111712;1240;22235;-75
2022/06/20 08:34:32;;;;;;;21.70;16.30;;;;;;;29.20;47.00;99617.30;111600;1239;23780;-75
2022/06/20 08:37:24;;;;;;;20.20;16.00;;;;;;;29.10;46.03;99633.13;111878;1239;21962;-76
2022/06/20 08:40:57;;;;;;;21.10;16.70;;;;;;;29.03;46.47;99632.98;111940;1239;21984;-77
2022/06/20 08:44:28;;;;;;;20.00;16.40;;;;;;;28.97;46.03;99627.98;111841;1238;23698;-75
2022/06/20 08:47:51;;;;;;;19.00;15.90;;;;;;;28.89;47.11;99624.20;112090;1237;23655;-75
2022/06/20 08:51:04;;;;;;;19.20;16.00;;;;;;;29.25;47.53;99608.50;111456;1244;21965;-76
2022/06/20 08:54:18;;;;;;;21.40;15.90;;;;;;;29.65;47.60;99607.28;111617;1242;22728;-75
2022/06/20 08:57:29;;;;;;;22.40;14.50;;;;;;;29.81;44.51;99604.58;111114;1248;22523;-75
2022/06/20 09:00:35;;;;;;;20.20;14.70;;;;;;;29.67;43.89;99610.77;110974;1248;21996;-75
2022/06/20 09:03:43;;;;;;;15.40;13.10;;;;;;;29.50;43.80;99625.93;111096;1250;22758;-75
2022/06/20 09:06:50;;;;;;;21.00;17.80;;;;;;;29.19;43.72;99654.23;110400;1256;22156;-75
2022/06/20 09:10:14;;;;;;;22.80;20.30;;;;;;;28.71;44.79;99675.58;110206;1256;23019;-74
2022/06/20 09:13:09;;;;;;;25.70;23.20;;;;;;;28.08;46.44;99740.45;110227;1259;22133;-75
2022/06/20 09:16:04;;;;;;;25.30;23.30;;;;;;;27.27;47.72;99785.02;110311;1256;22080;-74
2022/06/20 09:18:56;;;;;;;19.30;17.50;;;;;;;26.37;49.12;99811.58;110357;1256;23041;-76
2022/06/20 09:21:59;;;;;;;19.60;17.70;;;;;;;25.32;50.48;99842.66;110635;1250;21979;-75
2022/06/20 09:24:56;;;;;;;20.30;18.50;;;;;;;24.24;52.32;99841.67;111112;1245;23670;-75
2022/06/20 09:28:04;;;;;;;16.80;15.30;;;;;;;23.54;54.68;99824.00;111400;1238;22026;-75
2022/06/20 09:31:06;;;;;;;16.30;14.70;;;;;;;23.08;55.83;99817.32;111113;1248;21972;-75
2022/06/20 09:34:10;;;;;;;16.50;14.90;;;;;;;22.74;57.23;99816.92;110634;1246;22133;-75
2022/06/20 09:37:21;;;;;;;14.30;13.10;;;;;;;22.52;58.11;99816.08;110670;1251;23661;-75
2022/06/20 09:40:03;;;;;;;12.70;11.40;;;;;;;22.23;58.33;99800.65;110416;1257;23618;-75
2022/06/20 09:43:06;;;;;;;13.30;10.80;;;;;;;21.98;58.72;99796.40;110396;1256;23638;-75
2022/06/20 09:45:52;;;;;;;13.00;10.50;;;;;;;21.66;59.44;99789.77;109684;1260;22094;-75
2022/06/20 09:48:42;;;;;;;11.90;10.70;;;;;;;21.48;60.20;99800.71;109477;1262;23645;-74
2022/06/20 09:51:48;;;;;;;11.50;10.40;;;;;;;21.27;60.35;99783.42;109924;1258;23771;-76
2022/06/20 09:55:14;;;;;;;13.90;10.20;;;;;;;20.99;60.72;99707.88;109171;1265;22004;-75
2022/06/20 09:58:06;;;;;;;11.90;9.80;;;;;;;20.70;61.51;99666.64;109066;1265;22352;-75
2022/06/20 10:01:31;;;;;;;9.90;8.90;;;;;;;20.44;62.03;99677.50;109247;1260;22480;-75
2022/06/20 10:04:53;;;;;;;10.70;9.50;;;;;;;20.17;62.69;99679.55;109278;1266;23835;-75
2022/06/20 10:07:54;;;;;;;11.50;9.80;;;;;;;20.05;63.41;99685.61;107324;1289;544262;-75
2022/06/20 10:10:45;;;;;;;11.60;10.50;;;;;;;19.86;63.49;99688.86;110310;1256;23848;-75
2022/06/20 10:13:37;;;;;;;13.90;11.70;;;;;;;19.71;64.00;99695.06;110232;1256;22068;-75
2022/06/20 10:16:22;;;;;;;13.50;11.30;;;;;;;19.68;64.67;99680.27;110314;1256;21967;-75
2022/06/20 10:19:09;;;;;;;14.10;11.60;;;;;;;19.69;64.91;99668.29;110213;1256;21972;-75
2022/06/20 10:21:50;;;;;;;14.40;12.40;;;;;;;19.68;64.73;99655.33;109989;1253;876925;-75
2022/06/20 10:24:41;;;;;;;12.30;11.00;;;;;;;19.68;64.97;99647.38;110682;1254;21970;-75
2022/06/20 10:27:31;;;;;;;11.60;10.50;;;;;;;19.66;65.07;99627.35;109827;1259;22014;-75
2022/06/20 10:30:18;;;;;;;12.30;11.20;;;;;;;19.65;64.93;99638.70;110299;1256;21961;-75
2022/06/20 10:33:42;;;;;;;12.80;11.70;;;;;;;19.59;64.72;99681.13;110226;1256;22936;-75
2022/06/20 10:36:57;;;;;;;13.70;12.10;;;;;;;19.61;65.70;99726.67;110465;1254;22508;-76
2022/06/20 10:40:08;;;;;;;15.70;14.10;;;;;;;19.73;66.02;99735.89;109631;1261;22425;-76
2022/06/20 10:42:42;;;;;;;12.70;11.40;;;;;;;19.86;65.98;99752.40;109315;1262;23092;-74
2022/06/20 10:45:44;;;;;;;12.00;10.70;;;;;;;20.04;66.11;99771.80;109915;1256;21960;-75
2022/06/20 10:48:42;;;;;;;12.10;10.80;;;;;;;20.09;64.91;99764.86;110236;1256;24485;-75
2022/06/20 10:51:59;;;;;;;14.40;11.40;;;;;;;20.11;64.94;99730.46;110444;1256;23023;-75
2022/06/20 10:55:08;;;;;;;13.90;10.10;;;;;;;20.17;64.96;99709.16;110249;1256;23120;-75
2022/06/20 10:58:11;;;;;;;12.80;10.10;;;;;;;20.26;64.88;99704.29;110436;1256;23115;-75
2022/06/20 11:00:59;;;;;;;12.90;11.60;;;;;;;20.32;64.73;99699.14;108893;1269;23165;-75
2022/06/20 11:04:15;;;;;;;10.30;9.30;;;;;;;20.37;64.66;99701.13;108895;1270;23017;-74
2022/06/20 11:06:59;;;;;;;10.90;9.80;;;;;;;20.42;64.43;99697.70;108347;1276;21998;-75
2022/06/20 11:10:23;;;;;;;11.20;10.10;;;;;;;20.40;64.00;99703.09;108003;1282;22053;-75
2022/06/20 11:13:13;;;;;;;11.40;9.80;;;;;;;20.34;63.80;99706.02;107894;1281;22513;-75
2022/06/20 11:16:07;;;;;;;11.60;10.40;;;;;;;20.28;63.97;99710.50;108044;1273;21988;-75
2022/06/20 11:19:03;;;;;;;10.30;9.20;;;;;;;20.27;64.35;99731.62;108488;1273;23760;-75
2022/06/20 11:22:24;;;;;;;11.60;9.30;;;;;;;20.26;64.25;99743.56;108378;1276;22008;-74
2022/06/20 11:25:24;;;;;;;9.60;8.50;;;;;;;20.15;64.07;99741.58;107849;1283;22782;-75
2022/06/20 11:28:18;;;;;;;11.00;9.20;;;;;;;20.03;63.93;99741.92;108104;1279;23033;-74
2022/06/20 11:31:14;;;;;;;11.90;9.50;;;;;;;19.95;64.34;99737.63;108313;1279;23434;-74
2022/06/20 11:34:01;;;;;;;11.00;10.00;;;;;;;19.85;64.34;99719.52;108284;1279;22475;-76
2022/06/20 11:37:21;;;;;;;13.20;9.20;;;;;;;19.71;64.76;99697.38;108322;1276;21991;-75
2022/06/20 11:40:39;;;;;;;11.10;10.00;;;;;;;19.63;65.06;99691.07;108294;1278;22001;-74
2022/06/20 11:43:51;;;;;;;12.10;9.80;;;;;;;19.58;65.59;99701.41;108146;1276;23632;-75
2022/06/20 11:46:39;;;;;;;12.50;10.80;;;;;;;19.58;66.08;99717.00;108475;1276;21996;-75
2022/06/20 11:49:51;;;;;;;11.20;10.20;;;;;;;19.56;65.97;99730.48;108172;1275;22118;-74
2022/06/20 11:52:56;;;;;;;13.00;9.90;;;;;;;19.53;66.12;99766.95;108337;1278;22956;-74
2022/06/20 11:55:41;;;;;;;13.50;10.50;;;;;;;19.54;66.76;99827.21;108364;1276;23063;-75
2022/06/20 11:58:31;;;;;;;12.50;11.20;;;;;;;19.60;66.96;99881.82;108416;1276;25414;-74
2022/06/20 12:01:18;;;;;;;12.40;11.10;;;;;;;19.58;67.10;99857.35;108951;1264;22752;-74
2022/06/20 12:04:21;;;;;;;14.80;12.20;;;;;;;19.53;66.90;99738.80;109320;1263;22396;-74
2022/06/20 12:07:20;;;;;;;16.60;12.30;;;;;;;19.45;67.10;99696.91;109423;1260;22788;-75
2022/06/20 12:10:07;;;;;;;11.30;10.30;;;;;;;19.41;67.46;99770.60;109466;1262;23049;-75
2022/06/20 12:12:58;;;;;;;13.90;11.30;;;;;;;19.40;67.60;99798.71;109920;1261;22536;-76
2022/06/20 12:16:02;;;;;;;13.00;11.70;;;;;;;19.43;67.90;99781.27;110424;1254;22760;-75
2022/06/20 12:23:18;;;;;;;14.00;11.70;;;;;;;19.43;67.78;99765.23;110479;1254;22221;-75
2022/06/20 12:24:48;;;;;;;12.80;11.10;;;;;;;19.37;67.89;99747.08;110585;1254;22082;-75
2022/06/20 12:27:30;;;;;;;12.50;11.30;;;;;;;19.37;68.12;99731.96;110284;1256;22064;-75
2022/06/20 12:30:00;;;;;;;13.70;10.70;;;;;;;19.43;68.44;99731.53;110631;1254;22037;-74
2022/06/20 12:32:34;;;;;;;12.40;11.10;;;;;;;19.46;68.20;99714.55;109838;1259;21980;-78
2022/06/20 12:35:37;;;;;;;11.90;10.80;;;;;;;19.47;68.24;99706.27;109806;1259;21964;-74
2022/06/20 12:38:38;;;;;;;18.90;11.40;;;;;;;19.52;68.64;99709.83;110457;1253;22647;-77
2022/06/20 12:41:19;;;;;;;13.20;10.20;;;;;;;19.61;68.84;99697.94;110497;1254;21958;-76
2022/06/20 12:43:54;;;;;;;;;;;;;;;19.72;68.76;99694.23;110497;1253;22949;-77
2022/06/20 12:47:06;;;;;;;15.40;10.50;;;;;;;19.72;68.62;99685.60;110589;1254;22993;-75
2022/06/20 12:50:24;;;;;;;9.90;9.00;;;;;;;19.73;68.06;99662.79;109927;1259;23580;-77
2022/06/20 12:53:24;;;;;;;11.30;9.00;;;;;;;19.74;67.99;99648.17;110610;1254;23615;-75
2022/06/20 12:56:14;;;;;;;10.00;8.30;;;;;;;19.73;67.64;99640.70;110667;1254;21966;-75
2022/06/20 12:59:45;;;;;;;13.20;11.20;;;;;;;19.72;67.66;99647.44;110182;1259;23580;-76
2022/06/20 13:03:04;;;;;;;9.00;8.20;;;;;;;19.71;67.58;99643.73;109934;1259;23419;-75
2022/06/20 13:06:05;;;;;;;8.70;7.90;;;;;;;19.72;67.73;99681.20;109955;1259;22333;-74
2022/06/20 13:08:53;;;;;;;9.60;8.60;;;;;;;19.74;67.67;99688.69;110048;1256;21974;-75
2022/06/20 13:12:19;;;;;;;10.20;7.90;;;;;;;19.74;67.45;99685.25;109847;1262;23714;-74